Time;durP1;ratioP1;P1;durP2;ratioP2;P2;SDS_P1;SDS_P2;PMS_P1;PMS_P2;Temp;Humidity;BMP_temperature;BMP_pressure;BME280_temperature;BME280_humidity;BME280_pressure;Samples;Min_cycle;Max_cycle;Signal;HPM_P1;HPM_P2
2022/04/13 00:02:20;;;;;;;3.10;1.20;;;18.30;60.30;;;;;;5018892;28;20029;-63
2022/04/13 00:04:46;;;;;;;2.95;1.20;;;18.30;60.20;;;;;;5015467;28;20025;-63
2022/04/13 00:07:11;;;;;;;4.32;1.40;;;18.30;60.30;;;;;;5015521;28;20022;-63
2022/04/13 00:09:37;;;;;;;3.63;1.35;;;18.30;60.20;;;;;;5017532;28;20033;-63
2022/04/13 00:12:06;;;;;;;4.45;1.23;;;18.30;60.20;;;;;;5017608;28;20473;-63
2022/04/13 00:14:32;;;;;;;2.28;0.95;;;18.20;60.20;;;;;;5021272;28;20557;-63
2022/04/13 00:16:57;;;;;;;4.47;1.20;;;18.20;60.20;;;;;;5017677;28;20026;-63
2022/04/13 00:19:24;;;;;;;4.50;1.60;;;18.20;60.20;;;;;;5016538;28;20238;-63
2022/04/13 00:21:50;;;;;;;2.72;1.10;;;18.20;60.30;;;;;;5016792;28;20427;-63
2022/04/13 00:24:15;;;;;;;3.58;1.23;;;18.20;60.20;;;;;;5024494;28;20061;-63
2022/04/13 00:26:41;;;;;;;2.83;1.30;;;18.20;60.20;;;;;;5021389;28;20053;-63
2022/04/13 00:29:07;;;;;;;2.83;1.30;;;18.20;60.20;;;;;;5021658;28;20021;-63
2022/04/13 00:31:32;;;;;;;4.13;1.20;;;18.20;60.20;;;;;;5015356;28;20068;-63
2022/04/13 00:33:58;;;;;;;2.42;1.10;;;18.20;60.20;;;;;;5015236;28;20049;-63
2022/04/13 00:36:24;;;;;;;2.17;1.10;;;18.20;60.20;;;;;;5023055;28;20462;-63
2022/04/13 00:38:49;;;;;;;2.60;1.15;;;18.20;60.10;;;;;;5019351;28;20061;-63
2022/04/13 00:41:17;;;;;;;2.72;1.17;;;18.20;60.30;;;;;;5016018;28;20088;-63
2022/04/13 00:43:43;;;;;;;3.38;1.30;;;18.10;60.20;;;;;;5020743;28;20298;-63
2022/04/13 00:46:08;;;;;;;2.75;1.30;;;18.10;60.20;;;;;;5017280;28;20041;-63
2022/04/13 00:48:39;;;;;;;4.38;1.00;;;18.10;60.20;;;;;;5025658;28;20038;-63
2022/04/13 00:51:05;;;;;;;2.80;0.93;;;18.10;60.20;;;;;;5017754;28;20156;-63
2022/04/13 00:53:31;;;;;;;3.67;1.23;;;18.10;60.20;;;;;;5015581;28;20112;-63
2022/04/13 00:55:58;;;;;;;3.15;1.20;;;18.10;60.20;;;;;;5015730;28;20029;-63
2022/04/13 00:58:29;;;;;;;2.45;1.20;;;18.10;60.10;;;;;;5016164;28;20390;-63
2022/04/13 01:00:55;;;;;;;3.78;1.10;;;18.10;60.10;;;;;;5016436;28;20503;-63
2022/04/13 01:03:22;;;;;;;1.52;0.93;;;18.10;60.10;;;;;;5017112;28;20433;-63
2022/04/13 01:05:48;;;;;;;3.33;0.90;;;18.10;60.10;;;;;;5012147;28;20034;-63
2022/04/13 01:08:15;;;;;;;3.03;0.98;;;18.00;60.00;;;;;;5020840;28;20026;-63
2022/04/13 01:10:41;;;;;;;2.67;1.15;;;18.00;59.90;;;;;;5021107;28;20071;-63
2022/04/13 01:13:07;;;;;;;1.95;1.10;;;18.10;60.10;;;;;;5014831;28;20125;-63
2022/04/13 01:15:33;;;;;;;2.58;0.90;;;18.00;59.90;;;;;;5015954;28;20101;-63
2022/04/13 01:17:58;;;;;;;3.22;1.10;;;18.10;60.10;;;;;;5015754;28;20484;-63
2022/04/13 01:20:25;;;;;;;5.35;0.95;;;18.00;60.00;;;;;;5019396;28;20463;-63
2022/04/13 01:22:51;;;;;;;2.35;1.10;;;18.00;59.90;;;;;;5015296;28;20398;-63
2022/04/13 01:25:16;;;;;;;2.78;1.10;;;18.00;59.90;;;;;;5017241;28;20025;-63
2022/04/13 01:27:42;;;;;;;1.70;1.00;;;18.00;60.10;;;;;;5021377;28;20585;-63
2022/04/13 01:30:08;;;;;;;2.03;0.98;;;18.00;60.00;;;;;;5020980;28;20022;-63
2022/04/13 01:32:34;;;;;;;2.90;1.02;;;18.00;60.00;;;;;;5016102;28;20525;-63
2022/04/13 01:35:00;;;;;;;2.47;0.93;;;18.00;60.00;;;;;;5022911;28;20113;-63
2022/04/13 01:37:25;;;;;;;4.50;1.25;;;18.00;60.00;;;;;;5017808;28;20033;-63
2022/04/13 01:39:51;;;;;;;2.88;1.10;;;18.00;60.00;;;;;;5015280;28;20028;-63
2022/04/13 01:42:17;;;;;;;3.58;1.30;;;17.90;60.10;;;;;;5017563;28;20022;-63
2022/04/13 01:44:42;;;;;;;3.72;1.00;;;17.90;60.00;;;;;;5019277;28;20073;-63
2022/04/13 01:47:09;;;;;;;2.33;1.10;;;17.90;60.00;;;;;;5016332;28;20029;-63
2022/04/13 01:49:35;;;;;;;3.30;1.10;;;17.90;60.10;;;;;;5020813;28;20034;-63
2022/04/13 01:52:02;;;;;;;2.85;1.20;;;17.90;60.10;;;;;;5014758;28;20140;-63
2022/04/13 01:54:28;;;;;;;2.22;1.13;;;17.90;61.00;;;;;;5019459;28;20041;-63
2022/04/13 01:56:53;;;;;;;3.13;1.08;;;17.90;60.10;;;;;;5016532;28;20018;-63
2022/04/13 01:59:19;;;;;;;2.67;1.10;;;17.80;60.10;;;;;;5015047;28;20080;-63
2022/04/13 02:01:45;;;;;;;2.13;0.95;;;17.90;60.10;;;;;;5014566;28;20116;-63
2022/04/13 02:04:21;;;;;;;2.20;0.95;;;17.90;60.10;;;;;;5019396;28;20533;-63
2022/04/13 02:06:47;;;;;;;2.22;0.90;;;17.90;60.00;;;;;;5011410;28;20050;-63
2022/04/13 02:09:13;;;;;;;1.98;1.05;;;17.80;59.90;;;;;;5012751;28;20117;-63
2022/04/13 02:11:39;;;;;;;2.50;0.90;;;17.90;60.00;;;;;;5020446;28;20021;-63
2022/04/13 02:14:05;;;;;;;1.92;1.10;;;17.80;60.00;;;;;;5016475;28;20490;-63
2022/04/13 02:16:31;;;;;;;2.42;1.10;;;17.80;60.00;;;;;;5015109;28;20588;-63
2022/04/13 02:18:56;;;;;;;2.28;1.10;;;17.80;59.90;;;;;;5013213;28;20038;-62
2022/04/13 02:21:22;;;;;;;2.15;1.00;;;17.80;59.90;;;;;;5026486;28;20040;-63
2022/04/13 02:23:48;;;;;;;3.10;1.42;;;17.80;59.90;;;;;;5018304;28;20027;-63
2022/04/13 02:26:13;;;;;;;2.85;0.90;;;17.80;60.00;;;;;;5017487;28;20032;-63
2022/04/13 02:28:40;;;;;;;2.15;1.05;;;17.80;60.00;;;;;;5014826;28;20025;-63
2022/04/13 02:31:05;;;;;;;2.55;1.00;;;17.80;59.90;;;;;;5012144;28;20060;-63
2022/04/13 02:33:31;;;;;;;1.95;0.90;;;17.80;59.90;;;;;;5014120;28;20136;-62
2022/04/13 02:35:58;;;;;;;2.25;1.02;;;17.80;60.00;;;;;;5013959;28;20026;-62
2022/04/13 02:38:24;;;;;;;1.98;0.90;;;17.70;60.00;;;;;;5015531;28;20414;-62
2022/04/13 02:40:50;;;;;;;1.35;0.95;;;17.70;60.00;;;;;;5015137;28;20032;-63
2022/04/13 02:43:16;;;;;;;1.90;0.95;;;17.70;59.90;;;;;;5016088;28;20380;-63
2022/04/13 02:45:41;;;;;;;2.70;1.00;;;17.70;60.00;;;;;;5017649;28;20060;-63
2022/04/13 02:48:10;;;;;;;2.65;1.10;;;17.70;59.90;;;;;;5019059;28;20045;-63
2022/04/13 02:50:37;;;;;;;2.45;1.05;;;17.70;59.90;;;;;;5013878;28;20029;-63
2022/04/13 02:53:02;;;;;;;1.50;0.80;;;17.70;59.90;;;;;;5012566;28;20029;-63
2022/04/13 02:55:29;;;;;;;2.03;0.90;;;17.70;60.00;;;;;;5013714;28;20410;-63
2022/04/13 02:57:54;;;;;;;2.45;0.90;;;17.70;59.90;;;;;;5014432;28;20041;-63
2022/04/13 03:00:20;;;;;;;1.70;0.93;;;17.70;59.90;;;;;;5017033;28;20033;-63
2022/04/13 03:02:46;;;;;;;1.20;0.85;;;17.70;59.80;;;;;;5021026;28;20034;-63
2022/04/13 03:05:11;;;;;;;1.23;0.90;;;17.70;59.80;;;;;;5014212;28;20383;-63
2022/04/13 03:07:37;;;;;;;2.63;1.00;;;17.60;59.70;;;;;;5018995;28;20052;-63
2022/04/13 03:10:04;;;;;;;1.75;1.00;;;17.60;59.90;;;;;;5013578;28;20092;-63
2022/04/13 03:12:29;;;;;;;2.65;0.90;;;17.60;59.80;;;;;;5022333;28;20168;-63
2022/04/13 03:14:55;;;;;;;2.50;1.00;;;17.70;59.80;;;;;;5018886;28;20563;-63
2022/04/13 03:17:21;;;;;;;2.17;1.10;;;17.60;59.80;;;;;;5014645;28;20041;-63
2022/04/13 03:19:46;;;;;;;2.53;1.10;;;17.60;59.90;;;;;;5016035;28;20025;-63
2022/04/13 03:22:12;;;;;;;1.52;0.95;;;17.60;59.90;;;;;;5009455;28;20065;-63
2022/04/13 03:24:37;;;;;;;2.08;0.90;;;17.60;59.80;;;;;;5017499;28;20065;-63
2022/04/13 03:27:03;;;;;;;2.65;0.90;;;17.60;59.80;;;;;;5014247;28;20116;-63
2022/04/13 03:29:29;;;;;;;2.13;0.90;;;17.60;59.60;;;;;;5015018;28;20021;-63
2022/04/13 03:31:55;;;;;;;2.13;1.00;;;17.60;59.80;;;;;;5012961;28;20526;-63
2022/04/13 03:34:20;;;;;;;1.90;0.90;;;17.60;59.70;;;;;;5013639;28;20493;-63
2022/04/13 03:36:49;;;;;;;2.40;1.10;;;17.60;59.60;;;;;;5026013;28;20104;-63
2022/04/13 03:39:15;;;;;;;2.08;0.93;;;17.60;59.70;;;;;;5019662;28;20025;-63
2022/04/13 03:41:41;;;;;;;2.25;1.10;;;17.60;59.80;;;;;;5015083;28;20034;-63
2022/04/13 03:44:06;;;;;;;1.05;0.70;;;17.60;59.70;;;;;;5021358;28;20056;-63
2022/04/13 03:46:32;;;;;;;1.52;0.80;;;17.60;59.70;;;;;;5014565;28;20038;-63
2022/04/13 03:48:58;;;;;;;2.30;0.88;;;17.50;59.70;;;;;;5019461;28;20033;-63
2022/04/13 03:51:24;;;;;;;2.83;1.10;;;17.60;59.70;;;;;;5020321;28;20352;-63
2022/04/13 03:53:49;;;;;;;2.25;1.05;;;17.50;59.60;;;;;;5021198;28;20434;-63
2022/04/13 03:56:15;;;;;;;1.75;0.90;;;17.50;59.60;;;;;;5021690;28;20391;-63
2022/04/13 03:58:41;;;;;;;1.70;0.70;;;17.50;59.50;;;;;;5015669;28;20040;-63
2022/04/13 04:01:10;;;;;;;2.28;1.00;;;17.50;59.60;;;;;;5014627;28;20091;-63
2022/04/13 04:03:35;;;;;;;2.60;1.00;;;17.50;59.70;;;;;;5019885;28;20414;-63
2022/04/13 04:06:01;;;;;;;1.67;0.80;;;17.50;59.60;;;;;;5019731;28;20033;-63
2022/04/13 04:08:28;;;;;;;2.15;0.90;;;17.50;59.50;;;;;;5020355;28;20033;-63
2022/04/13 04:10:53;;;;;;;1.50;0.90;;;17.50;59.60;;;;;;5017490;28;20075;-63
2022/04/13 04:13:20;;;;;;;1.40;0.85;;;17.50;59.70;;;;;;5014260;28;20037;-63
2022/04/13 04:15:45;;;;;;;1.92;0.93;;;17.50;59.60;;;;;;5016833;28;20105;-63
2022/04/13 04:18:11;;;;;;;1.80;1.00;;;17.50;59.60;;;;;;5017740;28;20577;-63
2022/04/13 04:20:36;;;;;;;1.88;0.82;;;17.50;59.70;;;;;;5018820;28;20529;-63
2022/04/13 04:23:02;;;;;;;3.88;1.00;;;17.50;59.60;;;;;;5018555;28;20034;-63
2022/04/13 04:25:28;;;;;;;4.07;0.93;;;17.50;59.70;;;;;;5026620;28;20034;-63
2022/04/13 04:27:54;;;;;;;1.88;0.90;;;17.50;59.70;;;;;;5017053;28;20030;-63
2022/04/13 04:30:19;;;;;;;1.38;0.90;;;17.50;59.70;;;;;;5018618;28;20044;-62
2022/04/13 04:32:45;;;;;;;1.23;0.70;;;17.50;59.60;;;;;;5019669;28;20037;-63
2022/04/13 04:35:10;;;;;;;1.95;0.90;;;17.50;59.70;;;;;;5016910;28;20026;-63
2022/04/13 04:37:36;;;;;;;3.95;0.95;;;17.40;59.70;;;;;;5015108;28;20227;-63
2022/04/13 04:40:02;;;;;;;2.22;0.88;;;17.40;59.60;;;;;;5015339;28;20033;-63
2022/04/13 04:42:28;;;;;;;2.90;1.10;;;17.40;59.70;;;;;;5016921;28;20491;-63
2022/04/13 04:44:59;;;;;;;1.67;0.90;;;17.40;59.60;;;;;;5022110;28;20038;-63
2022/04/13 04:47:25;;;;;;;2.78;0.95;;;17.40;59.60;;;;;;5020115;28;20515;-63
2022/04/13 04:49:50;;;;;;;2.85;1.10;;;17.40;59.70;;;;;;5013194;28;20113;-63
2022/04/13 04:52:16;;;;;;;2.28;1.00;;;17.40;59.70;;;;;;5024336;28;20462;-63
2022/04/13 04:54:42;;;;;;;2.15;0.80;;;17.40;59.70;;;;;;5022915;28;20068;-63
2022/04/13 04:57:08;;;;;;;1.73;0.70;;;17.40;59.80;;;;;;5021706;28;20057;-63
2022/04/13 04:59:34;;;;;;;2.08;0.80;;;17.40;59.70;;;;;;5019274;28;20520;-63
2022/04/13 05:02:00;;;;;;;2.25;0.80;;;17.40;59.70;;;;;;5017157;28;20033;-63
2022/04/13 05:04:26;;;;;;;2.55;0.80;;;17.40;59.90;;;;;;5018668;28;20064;-63
2022/04/13 05:06:51;;;;;;;3.30;1.00;;;17.30;59.80;;;;;;5014483;28;20052;-63
2022/04/13 05:09:18;;;;;;;2.47;0.90;;;17.30;59.90;;;;;;5012346;28;20037;-63
2022/04/13 05:11:44;;;;;;;3.70;0.85;;;17.40;59.90;;;;;;5020654;28;20455;-63
2022/04/13 05:14:10;;;;;;;1.33;0.80;;;17.40;59.90;;;;;;5020028;28;20073;-63
2022/04/13 05:16:36;;;;;;;2.88;1.00;;;17.30;59.90;;;;;;5015316;28;20024;-63
2022/04/13 05:19:01;;;;;;;3.03;0.98;;;17.30;59.90;;;;;;5016333;28;20030;-63
2022/04/13 05:21:27;;;;;;;3.22;1.02;;;17.30;59.90;;;;;;5023057;28;20041;-63
2022/04/13 05:23:53;;;;;;;3.90;1.20;;;17.40;60.00;;;;;;5015330;28;20029;-63
2022/04/13 05:26:19;;;;;;;3.03;0.90;;;17.30;60.00;;;;;;5020650;28;20026;-63
2022/04/13 05:28:46;;;;;;;2.85;0.90;;;17.30;60.90;;;;;;5015061;28;20325;-63
2022/04/13 05:31:11;;;;;;;1.83;0.73;;;17.30;59.90;;;;;;5020453;28;20470;-63
2022/04/13 05:33:37;;;;;;;3.05;0.90;;;17.30;59.90;;;;;;5015333;28;20500;-63
2022/04/13 05:36:03;;;;;;;3.33;1.20;;;17.30;60.00;;;;;;5017938;28;20034;-63
2022/04/13 05:38:29;;;;;;;2.03;0.77;;;17.30;59.90;;;;;;5017527;28;20682;-63
2022/04/13 05:40:55;;;;;;;1.77;1.02;;;17.30;59.90;;;;;;5019499;28;20029;-63
2022/04/13 05:43:20;;;;;;;2.05;0.80;;;17.30;59.90;;;;;;5019294;28;20063;-63
2022/04/13 05:45:46;;;;;;;1.27;0.90;;;17.30;60.00;;;;;;5017269;28;20088;-63
2022/04/13 05:48:12;;;;;;;2.42;0.85;;;17.30;60.50;;;;;;5013610;28;20279;-63
2022/04/13 05:50:37;;;;;;;3.22;0.90;;;17.30;60.60;;;;;;5020012;28;20026;-63
2022/04/13 05:53:03;;;;;;;4.43;1.20;;;17.20;60.40;;;;;;5015982;28;20041;-65
2022/04/13 05:55:29;;;;;;;3.72;1.17;;;17.30;61.40;;;;;;5022411;28;20544;-65
2022/04/13 05:57:56;;;;;;;3.38;1.00;;;17.20;61.20;;;;;;5012272;28;20487;-65
2022/04/13 06:00:22;;;;;;;4.10;1.10;;;17.30;61.30;;;;;;5024360;28;20026;-66
2022/04/13 06:02:48;;;;;;;4.93;1.35;;;17.30;61.10;;;;;;5022294;28;20160;-66
2022/04/13 06:05:14;;;;;;;11.20;1.42;;;17.30;61.40;;;;;;5015324;28;20104;-65
2022/04/13 06:07:40;;;;;;;4.47;1.10;;;17.30;61.30;;;;;;5015038;28;20055;-66
2022/04/13 06:10:06;;;;;;;3.63;1.13;;;17.30;61.80;;;;;;5018636;28;20525;-65
2022/04/13 06:12:32;;;;;;;3.10;1.00;;;17.40;62.00;;;;;;5014084;28;20053;-65
2022/04/13 06:15:05;;;;;;;8.73;1.27;;;17.40;62.00;;;;;;5025403;28;20029;-65
2022/04/13 06:17:31;;;;;;;6.65;1.02;;;17.40;62.00;;;;;;5029406;28;20036;-65
2022/04/13 06:19:56;;;;;;;4.25;1.40;;;17.40;62.40;;;;;;5018976;28;20026;-65
2022/04/13 06:22:22;;;;;;;8.68;1.50;;;17.40;63.30;;;;;;5025677;28;20044;-65
2022/04/13 06:24:51;;;;;;;8.48;1.95;;;17.40;63.50;;;;;;5013074;28;20022;-65
2022/04/13 06:27:20;;;;;;;7.10;1.30;;;17.40;63.60;;;;;;5016953;28;20431;-65
2022/04/13 06:29:46;;;;;;;7.32;1.30;;;17.40;63.50;;;;;;5014192;28;20022;-65
2022/04/13 06:32:15;;;;;;;5.50;1.05;;;17.40;63.40;;;;;;5018451;28;20074;-65
2022/04/13 06:34:40;;;;;;;8.50;1.35;;;17.40;63.00;;;;;;5013981;28;20035;-65
2022/04/13 06:37:06;;;;;;;6.60;1.15;;;17.40;63.00;;;;;;5014952;28;20410;-66
2022/04/13 06:39:32;;;;;;;7.47;1.15;;;17.40;63.00;;;;;;5030591;28;20115;-65
2022/04/13 06:41:57;;;;;;;9.93;1.30;;;17.40;63.00;;;;;;5017644;28;20028;-65
2022/04/13 06:44:23;;;;;;;7.10;1.30;;;17.40;62.70;;;;;;5019843;28;20045;-65
2022/04/13 06:46:49;;;;;;;5.25;1.13;;;17.30;63.00;;;;;;5019896;28;20040;-65
2022/04/13 06:49:14;;;;;;;9.10;1.17;;;17.30;62.90;;;;;;5016090;28;20402;-65
2022/04/13 06:51:40;;;;;;;4.68;1.20;;;17.30;62.90;;;;;;5017377;28;20634;-65
2022/04/13 06:54:05;;;;;;;3.88;1.20;;;17.30;63.10;;;;;;5021535;28;20030;-65
2022/04/13 06:56:34;;;;;;;7.82;1.42;;;17.30;63.20;;;;;;5023186;28;20364;-65
2022/04/13 06:59:00;;;;;;;9.57;1.45;;;17.40;63.50;;;;;;5014022;28;20572;-65
2022/04/13 07:01:25;;;;;;;7.93;1.35;;;17.40;63.30;;;;;;5012526;28;20021;-65
2022/04/13 07:03:51;;;;;;;10.02;1.50;;;17.30;63.20;;;;;;5014621;28;20026;-65
2022/04/13 07:06:17;;;;;;;6.72;1.10;;;17.30;63.10;;;;;;5020011;28;20049;-65
2022/04/13 07:08:43;;;;;;;7.28;1.42;;;17.30;63.10;;;;;;5015835;28;20040;-65
2022/04/13 07:11:08;;;;;;;8.88;1.10;;;17.30;63.10;;;;;;5016467;28;20044;-66
2022/04/13 07:13:34;;;;;;;6.80;1.20;;;17.30;63.10;;;;;;5013616;28;20057;-66
2022/04/13 07:15:59;;;;;;;6.40;1.45;;;17.30;63.10;;;;;;5011123;28;20022;-65
2022/04/13 07:18:25;;;;;;;4.53;1.10;;;17.30;63.00;;;;;;5015630;28;20061;-65
2022/04/13 07:20:51;;;;;;;6.75;1.30;;;17.30;63.00;;;;;;5013868;28;20081;-65
2022/04/13 07:23:17;;;;;;;3.72;1.25;;;17.30;63.00;;;;;;5016525;28;20034;-65
2022/04/13 07:25:43;;;;;;;6.65;1.38;;;17.30;63.00;;;;;;5016368;28;20431;-65
2022/04/13 07:28:08;;;;;;;6.43;1.50;;;17.30;62.90;;;;;;5014341;28;20042;-65
2022/04/13 07:30:34;;;;;;;8.27;1.20;;;17.30;62.80;;;;;;5015660;28;20180;-65
2022/04/13 07:33:01;;;;;;;7.00;1.50;;;17.30;62.90;;;;;;5016335;28;20037;-65
2022/04/13 07:35:28;;;;;;;8.38;1.40;;;17.30;62.80;;;;;;5019457;28;20030;-65
2022/04/13 07:37:54;;;;;;;6.40;1.20;;;17.30;62.70;;;;;;5013328;28;20033;-65
2022/04/13 07:40:20;;;;;;;5.07;1.48;;;17.30;62.80;;;;;;5011137;28;20567;-66
2022/04/13 07:42:45;;;;;;;6.10;1.33;;;17.30;62.70;;;;;;5011149;28;20049;-65
2022/04/13 07:45:11;;;;;;;14.93;2.60;;;17.30;62.60;;;;;;5011865;28;20046;-66
2022/04/13 07:47:37;;;;;;;7.57;1.63;;;17.30;63.10;;;;;;5016548;28;20127;-66
2022/04/13 07:50:03;;;;;;;9.68;1.45;;;17.30;62.80;;;;;;5015431;28;20104;-65
2022/04/13 07:52:33;;;;;;;5.35;1.42;;;17.30;62.60;;;;;;5011666;28;20494;-66
2022/04/13 07:54:58;;;;;;;6.95;1.45;;;17.30;62.80;;;;;;5011468;28;20510;-66
2022/04/13 07:57:24;;;;;;;5.95;1.33;;;17.30;62.70;;;;;;5015916;28;20062;-66
2022/04/13 07:59:50;;;;;;;6.03;1.55;;;17.30;62.30;;;;;;5015452;28;20033;-66
2022/04/13 08:02:21;;;;;;;8.10;1.48;;;17.30;62.50;;;;;;5017187;28;20065;-66
2022/04/13 08:04:47;;;;;;;8.70;1.52;;;17.30;62.30;;;;;;5013685;28;20133;-65
2022/04/13 08:07:14;;;;;;;4.28;1.30;;;17.30;62.30;;;;;;5008433;28;20112;-65
2022/04/13 08:09:40;;;;;;;15.40;1.60;;;17.30;63.40;;;;;;5014062;28;20042;-66
2022/04/13 08:12:06;;;;;;;7.30;1.40;;;17.30;62.40;;;;;;5013711;28;20125;-65
2022/04/13 08:14:31;;;;;;;8.23;1.77;;;17.30;62.50;;;;;;5014936;28;20037;-65
2022/04/13 08:16:57;;;;;;;5.32;1.50;;;17.30;62.20;;;;;;5014456;28;20030;-65
2022/04/13 08:19:25;;;;;;;6.65;1.42;;;17.30;62.20;;;;;;5020315;28;20359;-65
2022/04/13 08:21:51;;;;;;;6.50;1.42;;;17.30;62.40;;;;;;5019291;28;20036;-65
2022/04/13 08:24:19;;;;;;;7.00;1.35;;;17.30;62.30;;;;;;5016933;28;20029;-65
2022/04/13 08:26:45;;;;;;;4.55;1.50;;;17.30;62.20;;;;;;5018706;28;20049;-65
2022/04/13 08:29:11;;;;;;;6.20;1.73;;;17.30;62.20;;;;;;5017853;28;20060;-65
2022/04/13 08:31:37;;;;;;;6.85;1.48;;;17.30;62.10;;;;;;5015913;28;20316;-65
2022/04/13 08:34:03;;;;;;;6.18;1.55;;;17.30;62.40;;;;;;5017745;28;20493;-66
2022/04/13 08:36:29;;;;;;;6.28;1.65;;;17.30;62.50;;;;;;5013434;28;20037;-66
2022/04/13 08:38:54;;;;;;;6.13;1.30;;;17.30;62.50;;;;;;5024914;28;20052;-65
2022/04/13 08:41:32;;;;;;;6.22;1.70;;;17.40;62.40;;;;;;5023047;28;20030;-66
2022/04/13 08:44:04;;;;;;;5.90;1.30;;;17.40;62.30;;;;;;5015157;28;20169;-65
2022/04/13 08:46:29;;;;;;;6.97;1.75;;;17.30;62.10;;;;;;5015975;28;20588;-66
2022/04/13 08:48:56;;;;;;;6.32;1.30;;;17.40;62.40;;;;;;5022163;28;20100;-66
2022/04/13 08:51:24;;;;;;;8.90;1.55;;;17.40;62.90;;;;;;5023288;28;20118;-66
2022/04/13 08:53:57;;;;;;;7.50;1.70;;;17.40;63.10;;;;;;5017151;28;20054;-66
2022/04/13 08:56:23;;;;;;;4.82;1.40;;;17.40;62.70;;;;;;5017855;28;20041;-66
2022/04/13 08:58:59;;;;;;;3.92;1.30;;;17.40;62.80;;;;;;5015306;28;20022;-66
2022/04/13 09:01:30;;;;;;;10.98;1.50;;;17.40;63.00;;;;;;5024545;28;20029;-66
2022/04/13 09:03:57;;;;;;;7.50;1.60;;;17.40;62.90;;;;;;5015906;28;20036;-66
2022/04/13 09:06:22;;;;;;;7.50;1.58;;;17.50;62.90;;;;;;5025088;28;20502;-66
2022/04/13 09:08:56;;;;;;;5.60;1.50;;;17.50;62.90;;;;;;5018378;28;20076;-66
2022/04/13 09:11:22;;;;;;;7.53;1.70;;;17.50;62.90;;;;;;5019245;28;20025;-66
2022/04/13 09:13:49;;;;;;;8.30;1.70;;;17.50;63.10;;;;;;5017992;28;20044;-66
2022/04/13 09:16:15;;;;;;;5.28;1.58;;;17.50;63.10;;;;;;5013913;28;20465;-65
2022/04/13 09:18:42;;;;;;;8.13;1.67;;;17.60;63.20;;;;;;5016458;28;20571;-65
2022/04/13 09:21:07;;;;;;;11.13;1.48;;;17.60;63.20;;;;;;5016230;28;20025;-65
2022/04/13 09:23:33;;;;;;;7.53;1.45;;;17.60;63.10;;;;;;5022888;28;20030;-66
2022/04/13 09:25:59;;;;;;;6.80;1.30;;;17.60;63.20;;;;;;5016623;28;20346;-65
2022/04/13 09:28:25;;;;;;;7.38;1.60;;;17.60;63.30;;;;;;5013175;28;20038;-66
2022/04/13 09:30:52;;;;;;;5.57;1.35;;;17.60;63.20;;;;;;5014538;28;20046;-66
2022/04/13 09:33:18;;;;;;;7.75;1.50;;;17.70;63.30;;;;;;5014179;28;20498;-66
2022/04/13 09:35:44;;;;;;;8.48;1.60;;;17.70;63.20;;;;;;5013053;28;20042;-66
2022/04/13 09:38:09;;;;;;;9.07;1.50;;;17.70;63.20;;;;;;5012782;28;20028;-66
2022/04/13 09:40:39;;;;;;;3.97;1.40;;;17.70;63.00;;;;;;5014555;28;20028;-66
2022/04/13 09:43:06;;;;;;;5.70;1.50;;;17.70;62.90;;;;;;5017159;28;20380;-66
2022/04/13 09:45:43;;;;;;;8.43;1.50;;;17.70;62.80;;;;;;5019691;28;20046;-66
2022/04/13 09:48:11;;;;;;;6.15;1.40;;;17.70;62.80;;;;;;5019397;28;20505;-66
2022/04/13 09:50:37;;;;;;;6.40;1.65;;;17.70;62.70;;;;;;5024872;28;20030;-66
2022/04/13 09:53:05;;;;;;;7.32;1.40;;;17.70;62.70;;;;;;5016594;28;20064;-66
2022/04/13 09:55:40;;;;;;;5.05;1.55;;;17.70;62.50;;;;;;5022205;28;20552;-66
2022/04/13 09:58:12;;;;;;;7.50;1.50;;;17.70;62.70;;;;;;5019641;28;20049;-66
2022/04/13 10:00:38;;;;;;;4.47;1.23;;;17.70;62.70;;;;;;5024214;28;20061;-67
2022/04/13 10:03:15;;;;;;;8.30;1.58;;;17.70;62.70;;;;;;5022868;28;20033;-67
2022/04/13 10:05:45;;;;;;;4.25;1.40;;;17.70;62.60;;;;;;5017524;28;20037;-67
2022/04/13 10:08:13;;;;;;;5.60;1.55;;;17.70;62.60;;;;;;5022144;28;20033;-67
2022/04/13 10:10:43;;;;;;;8.70;1.77;;;17.70;62.60;;;;;;5016283;28;20036;-67
2022/04/13 10:13:11;;;;;;;8.63;1.92;;;17.70;62.90;;;;;;5019303;28;20045;-67
2022/04/13 10:15:36;;;;;;;7.25;1.63;;;17.80;63.00;;;;;;5015974;28;20030;-69
2022/04/13 10:18:05;;;;;;;5.07;1.60;;;17.80;62.70;;;;;;5017123;28;20034;-67
2022/04/13 10:20:44;;;;;;;6.35;1.50;;;17.80;62.90;;;;;;5015784;28;20026;-67
2022/04/13 10:23:09;;;;;;;7.65;1.75;;;17.80;62.90;;;;;;5014968;28;20038;-67
2022/04/13 10:25:35;;;;;;;6.65;1.63;;;17.80;62.80;;;;;;5023098;28;20032;-67
2022/04/13 10:28:01;;;;;;;11.02;1.75;;;17.90;62.80;;;;;;5022380;28;20029;-68
2022/04/13 10:30:31;;;;;;;7.22;2.00;;;17.90;62.60;;;;;;5020520;28;20510;-68
2022/04/13 10:33:01;;;;;;;5.65;1.70;;;18.00;62.60;;;;;;5015433;28;20025;-67
2022/04/13 10:35:27;;;;;;;6.78;1.60;;;18.00;62.60;;;;;;5018657;28;20037;-66
2022/04/13 10:37:54;;;;;;;6.03;1.63;;;18.10;62.70;;;;;;5016365;28;20025;-67
2022/04/13 10:40:20;;;;;;;6.60;1.80;;;18.20;62.80;;;;;;5016615;28;20410;-68
2022/04/13 10:42:48;;;;;;;6.18;1.70;;;18.30;62.80;;;;;;5012709;28;20069;-67
2022/04/13 10:45:14;;;;;;;7.20;1.70;;;18.30;62.60;;;;;;5019050;28;20125;-67
2022/04/13 10:47:58;;;;;;;10.02;1.83;;;18.40;63.40;;;;;;5014591;28;20053;-67
2022/04/13 10:50:45;;;;;;;7.68;1.98;;;18.40;63.20;;;;;;5020303;28;20055;-68
2022/04/13 10:53:30;;;;;;;8.45;2.00;;;18.50;63.40;;;;;;5019937;28;20379;-68
2022/04/13 10:56:00;;;;;;;9.95;2.25;;;18.60;63.70;;;;;;5015107;28;20025;-67
2022/04/13 10:58:29;;;;;;;7.88;1.95;;;18.60;64.20;;;;;;5012787;28;20025;-68
2022/04/13 11:01:01;;;;;;;5.97;1.95;;;18.70;64.60;;;;;;5018539;28;20619;-68
2022/04/13 11:03:30;;;;;;;7.95;1.83;;;18.70;65.00;;;;;;5020733;28;20022;-67
2022/04/13 11:05:56;;;;;;;9.30;2.33;;;18.70;64.50;;;;;;5019706;28;20533;-67
2022/04/13 11:08:25;;;;;;;11.90;2.38;;;18.70;65.80;;;;;;5017800;28;20033;-67
2022/04/13 11:10:52;;;;;;;6.45;1.90;;;18.70;64.90;;;;;;5016668;28;20077;-67
2022/04/13 11:13:17;;;;;;;7.70;2.20;;;18.80;64.50;;;;;;5004468;28;20576;-67
2022/04/13 11:15:45;;;;;;;5.60;1.73;;;18.80;64.20;;;;;;5019516;28;20086;-68
2022/04/13 11:18:12;;;;;;;5.28;1.73;;;18.80;63.80;;;;;;5016702;28;20021;-66
2022/04/13 11:21:03;;;;;;;7.90;2.10;;;18.80;63.10;;;;;;5023125;28;20076;-63
2022/04/13 11:23:52;;;;;;;6.93;1.80;;;18.90;63.00;;;;;;5015640;28;20036;-63
2022/04/13 11:26:36;;;;;;;7.05;1.85;;;19.00;62.90;;;;;;5015466;28;20063;-67
2022/04/13 11:29:19;;;;;;;6.03;1.60;;;19.00;62.50;;;;;;5014941;28;20025;-67
2022/04/13 11:31:59;;;;;;;6.38;1.92;;;19.10;62.10;;;;;;5012216;28;20021;-68
2022/04/13 11:34:48;;;;;;;5.15;1.60;;;19.00;61.70;;;;;;5015094;28;20040;-68
2022/04/13 11:37:20;;;;;;;4.57;1.50;;;19.00;61.60;;;;;;5012603;28;20407;-69
2022/04/13 11:39:55;;;;;;;7.70;1.80;;;19.00;61.50;;;;;;5019744;28;20022;-68
2022/04/13 11:42:26;;;;;;;6.32;1.80;;;19.00;61.70;;;;;;5018197;28;20034;-69
2022/04/13 11:44:55;;;;;;;6.85;1.50;;;19.00;61.80;;;;;;5012844;28;20072;-67
2022/04/13 11:47:22;;;;;;;8.00;1.70;;;19.00;61.60;;;;;;5021188;28;20069;-67
2022/04/13 11:50:01;;;;;;;4.97;1.40;;;19.10;61.70;;;;;;5016734;28;20029;-68
2022/04/13 11:52:45;;;;;;;7.82;1.40;;;19.00;61.30;;;;;;5015773;28;20351;-67
2022/04/13 11:55:24;;;;;;;7.45;1.80;;;19.00;61.10;;;;;;5016698;28;20108;-67
2022/04/13 11:57:59;;;;;;;6.18;1.83;;;19.00;61.40;;;;;;5016382;28;20057;-67
2022/04/13 12:01:07;;;;;;;12.05;2.90;;;18.90;60.90;;;;;;5020821;28;20034;-67
2022/04/13 12:03:34;;;;;;;10.02;2.08;;;18.90;60.80;;;;;;5022192;28;20036;-67
2022/04/13 12:06:01;;;;;;;7.13;1.77;;;18.90;61.20;;;;;;5022545;28;20021;-67
2022/04/13 12:08:41;;;;;;;8.75;2.03;;;18.90;61.20;;;;;;5020776;28;20113;-67
2022/04/13 12:11:09;;;;;;;11.98;1.85;;;18.90;61.20;;;;;;5017373;28;20060;-67
2022/04/13 12:13:48;;;;;;;8.85;1.85;;;18.90;61.30;;;;;;5020764;28;20040;-67
2022/04/13 12:16:23;;;;;;;7.82;1.65;;;18.80;61.50;;;;;;5021134;28;20095;-67
2022/04/13 12:18:50;;;;;;;4.03;1.42;;;18.90;61.40;;;;;;5019567;28;20032;-67
2022/04/13 12:21:16;;;;;;;8.05;1.60;;;18.90;61.40;;;;;;5024839;28;20025;-67
2022/04/13 12:23:42;;;;;;;9.25;1.70;;;18.90;61.40;;;;;;5022502;28;20034;-67
2022/04/13 12:26:08;;;;;;;8.35;1.67;;;18.80;61.70;;;;;;5018540;28;20387;-67
2022/04/13 12:28:34;;;;;;;11.80;1.90;;;18.90;61.70;;;;;;5021454;28;20026;-67
2022/04/13 12:31:04;;;;;;;8.35;1.80;;;18.80;61.50;;;;;;5019679;28;20030;-67
2022/04/13 12:33:30;;;;;;;9.40;1.83;;;18.80;61.60;;;;;;5025312;28;20414;-67
2022/04/13 12:36:00;;;;;;;7.95;1.58;;;18.80;61.70;;;;;;5018870;28;20052;-67
2022/04/13 12:38:29;;;;;;;7.85;1.92;;;18.80;61.80;;;;;;5024332;28;20033;-67
2022/04/13 12:41:22;;;;;;;8.52;1.73;;;18.80;61.70;;;;;;5021085;28;20022;-67
2022/04/13 12:43:58;;;;;;;5.70;1.40;;;18.80;61.70;;;;;;5021838;28;20033;-67
2022/04/13 12:46:28;;;;;;;10.23;1.60;;;18.80;61.80;;;;;;5019291;28;20464;-67
2022/04/13 12:48:55;;;;;;;5.63;1.50;;;18.80;61.90;;;;;;5016579;28;20040;-67